sensor_id;sensor_type;location;lat;lon;timestamp;temperature;humidity
3562;DHT22;1795;52.074;4.754;2022-10-16T00:02:24;13.80;99.90
3562;DHT22;1795;52.074;4.754;2022-10-16T00:04:52;13.80;99.90
3562;DHT22;1795;52.074;4.754;2022-10-16T00:07:21;13.80;99.90
3562;DHT22;1795;52.074;4.754;2022-10-16T00:09:49;13.80;99.90
3562;DHT22;1795;52.074;4.754;2022-10-16T00:12:19;13.80;99.90
3562;DHT22;1795;52.074;4.754;2022-10-16T00:14:47;13.80;99.90
3562;DHT22;1795;52.074;4.754;2022-10-16T00:17:15;13.80;99.90
3562;DHT22;1795;52.074;4.754;2022-10-16T00:19:43;13.80;99.90
3562;DHT22;1795;52.074;4.754;2022-10-16T00:22:10;13.80;99.90
3562;DHT22;1795;52.074;4.754;2022-10-16T00:24:38;13.80;99.90
3562;DHT22;1795;52.074;4.754;2022-10-16T00:27:06;13.80;99.90
3562;DHT22;1795;52.074;4.754;2022-10-16T00:29:36;13.80;99.90
3562;DHT22;1795;52.074;4.754;2022-10-16T00:32:04;13.80;99.90
3562;DHT22;1795;52.074;4.754;2022-10-16T00:34:32;13.80;99.90
3562;DHT22;1795;52.074;4.754;2022-10-16T00:36:59;13.80;99.90
3562;DHT22;1795;52.074;4.754;2022-10-16T00:39:27;13.80;99.90
3562;DHT22;1795;52.074;4.754;2022-10-16T00:41:55;13.80;99.90
3562;DHT22;1795;52.074;4.754;2022-10-16T00:44:45;13.80;99.90
3562;DHT22;1795;52.074;4.754;2022-10-16T00:47:19;13.80;99.90
3562;DHT22;1795;52.074;4.754;2022-10-16T00:49:50;13.80;99.90
3562;DHT22;1795;52.074;4.754;2022-10-16T00:52:18;13.80;99.90
3562;DHT22;1795;52.074;4.754;2022-10-16T00:54:48;13.80;99.90
3562;DHT22;1795;52.074;4.754;2022-10-16T00:57:16;13.80;99.90
3562;DHT22;1795;52.074;4.754;2022-10-16T00:59:46;13.80;99.90
3562;DHT22;1795;52.074;4.754;2022-10-16T01:02:16;13.80;99.90
3562;DHT22;1795;52.074;4.754;2022-10-16T01:04:47;13.80;99.90
3562;DHT22;1795;52.074;4.754;2022-10-16T01:07:26;13.90;99.90
3562;DHT22;1795;52.074;4.754;2022-10-16T01:10:05;13.90;99.90
3562;DHT22;1795;52.074;4.754;2022-10-16T01:12:40;13.90;99.90
3562;DHT22;1795;52.074;4.754;2022-10-16T01:15:19;13.90;99.90
3562;DHT22;1795;52.074;4.754;2022-10-16T01:17:56;13.90;99.90
3562;DHT22;1795;52.074;4.754;2022-10-16T01:20:27;13.90;99.90
3562;DHT22;1795;52.074;4.754;2022-10-16T01:23:05;13.90;99.90
3562;DHT22;1795;52.074;4.754;2022-10-16T01:25:46;13.90;99.90
3562;DHT22;1795;52.074;4.754;2022-10-16T01:28:21;13.90;99.90
3562;DHT22;1795;52.074;4.754;2022-10-16T01:30:54;13.90;99.90
3562;DHT22;1795;52.074;4.754;2022-10-16T01:33:30;13.90;99.90
3562;DHT22;1795;52.074;4.754;2022-10-16T01:36:05;13.90;99.90
3562;DHT22;1795;52.074;4.754;2022-10-16T01:38:37;13.90;99.90
3562;DHT22;1795;52.074;4.754;2022-10-16T01:41:09;13.90;99.90
3562;DHT22;1795;52.074;4.754;2022-10-16T01:43:45;13.90;99.90
3562;DHT22;1795;52.074;4.754;2022-10-16T01:46:18;13.90;99.90
3562;DHT22;1795;52.074;4.754;2022-10-16T01:48:48;13.90;99.90
3562;DHT22;1795;52.074;4.754;2022-10-16T01:51:18;13.90;99.90
3562;DHT22;1795;52.074;4.754;2022-10-16T01:53:53;13.80;99.90
3562;DHT22;1795;52.074;4.754;2022-10-16T01:56:23;13.80;99.90
3562;DHT22;1795;52.074;4.754;2022-10-16T01:58:56;13.80;99.90
3562;DHT22;1795;52.074;4.754;2022-10-16T02:01:27;13.80;99.90
3562;DHT22;1795;52.074;4.754;2022-10-16T02:03:59;13.80;99.90
3562;DHT22;1795;52.074;4.754;2022-10-16T02:06:29;13.80;99.90
3562;DHT22;1795;52.074;4.754;2022-10-16T02:08:57;13.80;99.90
3562;DHT22;1795;52.074;4.754;2022-10-16T02:11:26;13.70;99.90
3562;DHT22;1795;52.074;4.754;2022-10-16T02:14:00;13.80;99.90
3562;DHT22;1795;52.074;4.754;2022-10-16T02:16:33;13.80;99.90
3562;DHT22;1795;52.074;4.754;2022-10-16T02:19:02;13.70;99.90
3562;DHT22;1795;52.074;4.754;2022-10-16T02:21:34;13.70;99.90
3562;DHT22;1795;52.074;4.754;2022-10-16T02:24:09;13.70;99.90
3562;DHT22;1795;52.074;4.754;2022-10-16T02:26:43;13.70;99.90
3562;DHT22;1795;52.074;4.754;2022-10-16T02:29:22;13.70;99.90
3562;DHT22;1795;52.074;4.754;2022-10-16T02:31:55;13.70;99.90
3562;DHT22;1795;52.074;4.754;2022-10-16T02:34:25;13.70;99.90
3562;DHT22;1795;52.074;4.754;2022-10-16T02:36:55;13.60;99.90
3562;DHT22;1795;52.074;4.754;2022-10-16T02:39:26;13.60;99.90
3562;DHT22;1795;52.074;4.754;2022-10-16T02:41:54;13.60;99.90
3562;DHT22;1795;52.074;4.754;2022-10-16T02:44:24;13.60;99.90
3562;DHT22;1795;52.074;4.754;2022-10-16T02:46:52;13.60;99.90
3562;DHT22;1795;52.074;4.754;2022-10-16T02:49:19;13.60;99.90
3562;DHT22;1795;52.074;4.754;2022-10-16T02:51:47;13.60;99.90
3562;DHT22;1795;52.074;4.754;2022-10-16T02:54:15;13.60;99.90
3562;DHT22;1795;52.074;4.754;2022-10-16T02:56:43;13.60;99.90
3562;DHT22;1795;52.074;4.754;2022-10-16T02:59:11;13.60;99.90
3562;DHT22;1795;52.074;4.754;2022-10-16T03:01:40;13.60;99.90
3562;DHT22;1795;52.074;4.754;2022-10-16T03:04:08;13.60;99.90
3562;DHT22;1795;52.074;4.754;2022-10-16T03:06:36;13.60;99.90
3562;DHT22;1795;52.074;4.754;2022-10-16T03:09:04;13.60;99.90
3562;DHT22;1795;52.074;4.754;2022-10-16T03:11:32;13.50;99.90
3562;DHT22;1795;52.074;4.754;2022-10-16T03:14:00;13.50;99.90
3562;DHT22;1795;52.074;4.754;2022-10-16T03:16:28;13.50;99.90
3562;DHT22;1795;52.074;4.754;2022-10-16T03:18:57;13.50;99.90
3562;DHT22;1795;52.074;4.754;2022-10-16T03:21:25;13.50;99.90
3562;DHT22;1795;52.074;4.754;2022-10-16T03:23:53;13.50;99.90
3562;DHT22;1795;52.074;4.754;2022-10-16T03:26:21;13.50;99.90
3562;DHT22;1795;52.074;4.754;2022-10-16T03:28:48;13.50;99.90
3562;DHT22;1795;52.074;4.754;2022-10-16T03:31:16;13.50;99.90
3562;DHT22;1795;52.074;4.754;2022-10-16T03:33:44;13.40;99.90
3562;DHT22;1795;52.074;4.754;2022-10-16T03:36:14;13.50;99.90
3562;DHT22;1795;52.074;4.754;2022-10-16T03:38:41;13.50;99.90
3562;DHT22;1795;52.074;4.754;2022-10-16T03:41:09;13.40;99.90
3562;DHT22;1795;52.074;4.754;2022-10-16T03:43:37;13.40;99.90
3562;DHT22;1795;52.074;4.754;2022-10-16T03:46:05;13.40;99.90
3562;DHT22;1795;52.074;4.754;2022-10-16T03:48:33;13.40;99.90
3562;DHT22;1795;52.074;4.754;2022-10-16T03:51:01;13.40;99.90
3562;DHT22;1795;52.074;4.754;2022-10-16T03:53:30;13.40;99.90
3562;DHT22;1795;52.074;4.754;2022-10-16T03:55:58;13.40;99.90
3562;DHT22;1795;52.074;4.754;2022-10-16T03:58:26;13.40;99.90
3562;DHT22;1795;52.074;4.754;2022-10-16T04:00:55;13.40;99.90
3562;DHT22;1795;52.074;4.754;2022-10-16T04:03:23;13.40;99.90
3562;DHT22;1795;52.074;4.754;2022-10-16T04:05:51;13.40;99.90
3562;DHT22;1795;52.074;4.754;2022-10-16T04:08:18;13.40;99.90
3562;DHT22;1795;52.074;4.754;2022-10-16T04:10:48;13.40;99.90
3562;DHT22;1795;52.074;4.754;2022-10-16T04:13:16;13.40;99.90
3562;DHT22;1795;52.074;4.754;2022-10-16T04:15:49;13.40;99.90
3562;DHT22;1795;52.074;4.754;2022-10-16T04:18:17;13.40;99.90
3562;DHT22;1795;52.074;4.754;2022-10-16T04:20:44;13.40;99.90
3562;DHT22;1795;52.074;4.754;2022-10-16T04:23:12;13.40;99.90
3562;DHT22;1795;52.074;4.754;2022-10-16T04:25:41;13.40;99.90
3562;DHT22;1795;52.074;4.754;2022-10-16T04:28:10;13.40;99.90
3562;DHT22;1795;52.074;4.754;2022-10-16T04:30:38;13.40;99.90
3562;DHT22;1795;52.074;4.754;2022-10-16T04:33:07;13.40;99.90
3562;DHT22;1795;52.074;4.754;2022-10-16T04:35:36;13.40;99.90
3562;DHT22;1795;52.074;4.754;2022-10-16T04:38:04;13.30;99.90
3562;DHT22;1795;52.074;4.754;2022-10-16T04:40:32;13.40;99.90
3562;DHT22;1795;52.074;4.754;2022-10-16T04:43:02;13.30;99.90
3562;DHT22;1795;52.074;4.754;2022-10-16T04:45:32;13.40;99.90
3562;DHT22;1795;52.074;4.754;2022-10-16T04:48:00;13.30;99.90
3562;DHT22;1795;52.074;4.754;2022-10-16T04:50:28;13.30;99.90
3562;DHT22;1795;52.074;4.754;2022-10-16T04:52:56;13.30;99.90
3562;DHT22;1795;52.074;4.754;2022-10-16T04:55:23;13.30;99.90
3562;DHT22;1795;52.074;4.754;2022-10-16T04:57:52;13.30;99.90
3562;DHT22;1795;52.074;4.754;2022-10-16T05:00:19;13.30;99.90
3562;DHT22;1795;52.074;4.754;2022-10-16T05:02:51;13.30;99.90
3562;DHT22;1795;52.074;4.754;2022-10-16T05:05:19;13.30;99.90
3562;DHT22;1795;52.074;4.754;2022-10-16T05:07:47;13.30;99.90
3562;DHT22;1795;52.074;4.754;2022-10-16T05:10:16;13.30;99.90
3562;DHT22;1795;52.074;4.754;2022-10-16T05:12:44;13.30;99.90
3562;DHT22;1795;52.074;4.754;2022-10-16T05:15:12;13.30;99.90
3562;DHT22;1795;52.074;4.754;2022-10-16T05:17:40;13.30;99.90
3562;DHT22;1795;52.074;4.754;2022-10-16T05:20:11;13.30;99.90
3562;DHT22;1795;52.074;4.754;2022-10-16T05:22:39;13.30;99.90
3562;DHT22;1795;52.074;4.754;2022-10-16T05:25:08;13.30;99.90
3562;DHT22;1795;52.074;4.754;2022-10-16T05:27:35;13.30;99.90
3562;DHT22;1795;52.074;4.754;2022-10-16T05:30:04;13.30;99.90
3562;DHT22;1795;52.074;4.754;2022-10-16T05:32:37;13.30;99.90
3562;DHT22;1795;52.074;4.754;2022-10-16T05:35:05;13.30;99.90
3562;DHT22;1795;52.074;4.754;2022-10-16T05:37:39;13.30;99.90
3562;DHT22;1795;52.074;4.754;2022-10-16T05:40:08;13.30;99.90
3562;DHT22;1795;52.074;4.754;2022-10-16T05:42:36;13.30;99.90
3562;DHT22;1795;52.074;4.754;2022-10-16T05:45:06;13.30;99.90
3562;DHT22;1795;52.074;4.754;2022-10-16T05:47:34;13.30;99.90
3562;DHT22;1795;52.074;4.754;2022-10-16T05:50:02;13.30;99.90
3562;DHT22;1795;52.074;4.754;2022-10-16T05:52:31;13.30;99.90
3562;DHT22;1795;52.074;4.754;2022-10-16T05:55:00;13.30;99.90
3562;DHT22;1795;52.074;4.754;2022-10-16T05:57:28;13.30;99.90
3562;DHT22;1795;52.074;4.754;2022-10-16T05:59:56;13.40;99.90
3562;DHT22;1795;52.074;4.754;2022-10-16T06:02:24;13.40;99.90
3562;DHT22;1795;52.074;4.754;2022-10-16T06:04:52;13.40;99.90
3562;DHT22;1795;52.074;4.754;2022-10-16T06:07:21;13.30;99.90
3562;DHT22;1795;52.074;4.754;2022-10-16T06:09:50;13.40;99.90
3562;DHT22;1795;52.074;4.754;2022-10-16T06:12:20;13.40;99.90
3562;DHT22;1795;52.074;4.754;2022-10-16T06:14:48;13.40;99.90
3562;DHT22;1795;52.074;4.754;2022-10-16T06:17:16;13.40;99.90
3562;DHT22;1795;52.074;4.754;2022-10-16T06:19:44;13.40;99.90
3562;DHT22;1795;52.074;4.754;2022-10-16T06:22:11;13.40;99.90
3562;DHT22;1795;52.074;4.754;2022-10-16T06:24:40;13.30;99.90
3562;DHT22;1795;52.074;4.754;2022-10-16T06:27:07;13.40;99.90
3562;DHT22;1795;52.074;4.754;2022-10-16T06:29:37;13.40;99.90
3562;DHT22;1795;52.074;4.754;2022-10-16T06:32:05;13.40;99.90
3562;DHT22;1795;52.074;4.754;2022-10-16T06:34:33;13.40;99.90
3562;DHT22;1795;52.074;4.754;2022-10-16T06:37:01;13.40;99.90
3562;DHT22;1795;52.074;4.754;2022-10-16T06:39:28;13.30;99.90
3562;DHT22;1795;52.074;4.754;2022-10-16T06:41:56;13.40;99.90
3562;DHT22;1795;52.074;4.754;2022-10-16T06:44:29;13.40;99.90
3562;DHT22;1795;52.074;4.754;2022-10-16T06:46:58;13.40;99.90
3562;DHT22;1795;52.074;4.754;2022-10-16T06:49:26;13.40;99.90
3562;DHT22;1795;52.074;4.754;2022-10-16T06:51:55;13.40;99.90
3562;DHT22;1795;52.074;4.754;2022-10-16T06:54:23;13.40;99.90
3562;DHT22;1795;52.074;4.754;2022-10-16T06:56:51;13.40;99.90
3562;DHT22;1795;52.074;4.754;2022-10-16T06:59:21;13.40;99.90
3562;DHT22;1795;52.074;4.754;2022-10-16T07:01:49;13.40;99.90
3562;DHT22;1795;52.074;4.754;2022-10-16T07:04:18;13.40;99.90
3562;DHT22;1795;52.074;4.754;2022-10-16T07:06:46;13.40;99.90
3562;DHT22;1795;52.074;4.754;2022-10-16T07:09:14;13.40;99.90
3562;DHT22;1795;52.074;4.754;2022-10-16T07:11:42;13.40;99.90
3562;DHT22;1795;52.074;4.754;2022-10-16T07:14:16;13.40;99.90
3562;DHT22;1795;52.074;4.754;2022-10-16T07:16:44;13.40;99.90
3562;DHT22;1795;52.074;4.754;2022-10-16T07:19:13;13.40;99.90
3562;DHT22;1795;52.074;4.754;2022-10-16T07:21:45;13.40;99.90
3562;DHT22;1795;52.074;4.754;2022-10-16T07:24:15;13.40;99.90
3562;DHT22;1795;52.074;4.754;2022-10-16T07:26:45;13.40;99.90
3562;DHT22;1795;52.074;4.754;2022-10-16T07:29:14;13.40;99.90
3562;DHT22;1795;52.074;4.754;2022-10-16T07:31:43;13.40;99.90
3562;DHT22;1795;52.074;4.754;2022-10-16T07:34:12;13.50;99.90
3562;DHT22;1795;52.074;4.754;2022-10-16T07:36:40;13.50;99.90
3562;DHT22;1795;52.074;4.754;2022-10-16T07:39:14;13.50;99.90
3562;DHT22;1795;52.074;4.754;2022-10-16T07:41:42;13.40;99.90
3562;DHT22;1795;52.074;4.754;2022-10-16T07:44:10;13.40;99.90
3562;DHT22;1795;52.074;4.754;2022-10-16T07:46:38;13.40;99.90
3562;DHT22;1795;52.074;4.754;2022-10-16T07:49:06;13.50;99.90
3562;DHT22;1795;52.074;4.754;2022-10-16T07:51:34;13.50;99.90
3562;DHT22;1795;52.074;4.754;2022-10-16T07:54:02;13.40;99.90
3562;DHT22;1795;52.074;4.754;2022-10-16T07:56:32;13.50;99.90
3562;DHT22;1795;52.074;4.754;2022-10-16T07:59:02;13.50;99.90
3562;DHT22;1795;52.074;4.754;2022-10-16T08:01:30;13.50;99.90
3562;DHT22;1795;52.074;4.754;2022-10-16T08:03:58;13.50;99.90
3562;DHT22;1795;52.074;4.754;2022-10-16T08:06:26;13.50;99.90
3562;DHT22;1795;52.074;4.754;2022-10-16T08:08:55;13.50;99.90
3562;DHT22;1795;52.074;4.754;2022-10-16T08:11:23;13.50;99.90
3562;DHT22;1795;52.074;4.754;2022-10-16T08:13:53;13.50;99.90
3562;DHT22;1795;52.074;4.754;2022-10-16T08:16:21;13.50;99.90
3562;DHT22;1795;52.074;4.754;2022-10-16T08:18:49;13.60;99.90
3562;DHT22;1795;52.074;4.754;2022-10-16T08:21:19;13.60;99.90
3562;DHT22;1795;52.074;4.754;2022-10-16T08:23:48;13.60;99.90
3562;DHT22;1795;52.074;4.754;2022-10-16T08:26:24;13.60;99.90
3562;DHT22;1795;52.074;4.754;2022-10-16T08:28:54;13.60;99.90
3562;DHT22;1795;52.074;4.754;2022-10-16T08:31:23;13.70;99.90
3562;DHT22;1795;52.074;4.754;2022-10-16T08:33:51;13.70;99.90
3562;DHT22;1795;52.074;4.754;2022-10-16T08:36:19;13.70;99.90
3562;DHT22;1795;52.074;4.754;2022-10-16T08:38:48;13.80;99.90
3562;DHT22;1795;52.074;4.754;2022-10-16T08:41:29;13.80;99.90
3562;DHT22;1795;52.074;4.754;2022-10-16T08:44:15;13.90;99.90
3562;DHT22;1795;52.074;4.754;2022-10-16T08:46:52;14.00;99.90
3562;DHT22;1795;52.074;4.754;2022-10-16T08:49:24;14.10;99.90
3562;DHT22;1795;52.074;4.754;2022-10-16T08:51:52;14.10;99.90
3562;DHT22;1795;52.074;4.754;2022-10-16T08:54:29;14.20;99.90
3562;DHT22;1795;52.074;4.754;2022-10-16T08:57:04;14.20;99.90
3562;DHT22;1795;52.074;4.754;2022-10-16T08:59:36;14.30;99.90
3562;DHT22;1795;52.074;4.754;2022-10-16T09:02:20;14.30;99.90
3562;DHT22;1795;52.074;4.754;2022-10-16T09:05:11;14.40;99.90
3562;DHT22;1795;52.074;4.754;2022-10-16T09:07:48;14.50;99.90
3562;DHT22;1795;52.074;4.754;2022-10-16T09:10:26;14.50;99.90
3562;DHT22;1795;52.074;4.754;2022-10-16T09:13:02;14.60;99.90
3562;DHT22;1795;52.074;4.754;2022-10-16T09:15:40;14.70;99.90
3562;DHT22;1795;52.074;4.754;2022-10-16T09:18:18;14.80;99.90
3562;DHT22;1795;52.074;4.754;2022-10-16T09:20:51;14.90;99.90
3562;DHT22;1795;52.074;4.754;2022-10-16T09:23:24;14.90;99.90
3562;DHT22;1795;52.074;4.754;2022-10-16T09:25:54;15.00;99.90
3562;DHT22;1795;52.074;4.754;2022-10-16T09:28:22;15.10;99.90
3562;DHT22;1795;52.074;4.754;2022-10-16T09:30:52;15.10;99.90
3562;DHT22;1795;52.074;4.754;2022-10-16T09:33:23;15.20;99.90
3562;DHT22;1795;52.074;4.754;2022-10-16T09:35:53;15.20;99.90
3562;DHT22;1795;52.074;4.754;2022-10-16T09:38:24;15.30;99.90
3562;DHT22;1795;52.074;4.754;2022-10-16T09:40:53;15.30;99.90
3562;DHT22;1795;52.074;4.754;2022-10-16T09:43:33;15.40;99.90
3562;DHT22;1795;52.074;4.754;2022-10-16T09:46:04;15.40;99.90
3562;DHT22;1795;52.074;4.754;2022-10-16T09:48:37;15.50;99.90
3562;DHT22;1795;52.074;4.754;2022-10-16T09:51:17;15.60;99.90
3562;DHT22;1795;52.074;4.754;2022-10-16T09:53:47;15.60;99.90
3562;DHT22;1795;52.074;4.754;2022-10-16T09:56:23;15.70;99.90
3562;DHT22;1795;52.074;4.754;2022-10-16T09:58:52;15.70;99.90
3562;DHT22;1795;52.074;4.754;2022-10-16T10:01:26;15.80;99.90
3562;DHT22;1795;52.074;4.754;2022-10-16T10:03:57;15.80;99.90
3562;DHT22;1795;52.074;4.754;2022-10-16T10:06:30;15.90;99.90
3562;DHT22;1795;52.074;4.754;2022-10-16T10:09:06;15.90;99.90
3562;DHT22;1795;52.074;4.754;2022-10-16T10:11:48;16.00;99.90
3562;DHT22;1795;52.074;4.754;2022-10-16T10:14:31;16.10;99.90
3562;DHT22;1795;52.074;4.754;2022-10-16T10:17:14;16.10;99.90
3562;DHT22;1795;52.074;4.754;2022-10-16T10:19:47;16.20;99.90
3562;DHT22;1795;52.074;4.754;2022-10-16T10:22:27;16.30;99.90
3562;DHT22;1795;52.074;4.754;2022-10-16T10:25:12;16.30;99.90
3562;DHT22;1795;52.074;4.754;2022-10-16T10:27:50;16.40;99.90
3562;DHT22;1795;52.074;4.754;2022-10-16T10:30:25;16.50;99.90
3562;DHT22;1795;52.074;4.754;2022-10-16T10:33:09;16.50;99.90
3562;DHT22;1795;52.074;4.754;2022-10-16T10:35:43;16.60;99.90
3562;DHT22;1795;52.074;4.754;2022-10-16T10:38:22;16.70;99.90
3562;DHT22;1795;52.074;4.754;2022-10-16T10:41:03;16.70;99.90
3562;DHT22;1795;52.074;4.754;2022-10-16T10:43:42;16.70;99.90
3562;DHT22;1795;52.074;4.754;2022-10-16T10:46:15;16.70;99.90
3562;DHT22;1795;52.074;4.754;2022-10-16T10:48:58;16.70;99.90
3562;DHT22;1795;52.074;4.754;2022-10-16T10:51:42;16.70;99.90
3562;DHT22;1795;52.074;4.754;2022-10-16T10:54:16;16.70;99.90
3562;DHT22;1795;52.074;4.754;2022-10-16T10:56:52;16.70;99.90
3562;DHT22;1795;52.074;4.754;2022-10-16T10:59:54;16.70;99.90
3562;DHT22;1795;52.074;4.754;2022-10-16T11:02:29;16.70;99.90
3562;DHT22;1795;52.074;4.754;2022-10-16T11:05:20;16.80;99.90
3562;DHT22;1795;52.074;4.754;2022-10-16T11:07:53;16.80;99.90
3562;DHT22;1795;52.074;4.754;2022-10-16T11:10:26;16.90;99.90
3562;DHT22;1795;52.074;4.754;2022-10-16T11:12:58;16.90;99.90
3562;DHT22;1795;52.074;4.754;2022-10-16T11:15:30;17.00;99.90
3562;DHT22;1795;52.074;4.754;2022-10-16T11:18:04;17.00;99.90
3562;DHT22;1795;52.074;4.754;2022-10-16T11:20:42;17.00;99.90
3562;DHT22;1795;52.074;4.754;2022-10-16T11:23:16;17.00;99.90
3562;DHT22;1795;52.074;4.754;2022-10-16T11:25:46;17.10;99.90
3562;DHT22;1795;52.074;4.754;2022-10-16T11:28:17;17.10;99.90
3562;DHT22;1795;52.074;4.754;2022-10-16T11:30:52;17.20;99.90
3562;DHT22;1795;52.074;4.754;2022-10-16T11:33:27;17.20;99.90
3562;DHT22;1795;52.074;4.754;2022-10-16T11:36:04;17.20;99.90
3562;DHT22;1795;52.074;4.754;2022-10-16T11:38:41;17.30;99.90
3562;DHT22;1795;52.074;4.754;2022-10-16T11:41:18;17.30;99.90
3562;DHT22;1795;52.074;4.754;2022-10-16T11:43:54;17.40;99.90
3562;DHT22;1795;52.074;4.754;2022-10-16T11:46:26;17.40;99.90
3562;DHT22;1795;52.074;4.754;2022-10-16T11:49:00;17.50;99.90
3562;DHT22;1795;52.074;4.754;2022-10-16T11:51:36;17.50;99.90
3562;DHT22;1795;52.074;4.754;2022-10-16T11:54:14;17.60;99.90
3562;DHT22;1795;52.074;4.754;2022-10-16T11:56:50;17.60;99.90
3562;DHT22;1795;52.074;4.754;2022-10-16T11:59:25;17.70;99.90
3562;DHT22;1795;52.074;4.754;2022-10-16T12:04:45;17.60;99.90
3562;DHT22;1795;52.074;4.754;2022-10-16T12:07:21;17.60;99.90
3562;DHT22;1795;52.074;4.754;2022-10-16T12:09:50;17.60;99.90
3562;DHT22;1795;52.074;4.754;2022-10-16T12:12:25;17.70;99.90
3562;DHT22;1795;52.074;4.754;2022-10-16T12:15:01;17.70;99.90
3562;DHT22;1795;52.074;4.754;2022-10-16T12:17:48;17.80;99.90
3562;DHT22;1795;52.074;4.754;2022-10-16T12:20:28;17.80;99.90
3562;DHT22;1795;52.074;4.754;2022-10-16T12:23:02;17.80;99.90
3562;DHT22;1795;52.074;4.754;2022-10-16T12:25:32;17.80;99.90
3562;DHT22;1795;52.074;4.754;2022-10-16T12:28:02;17.90;99.90
3562;DHT22;1795;52.074;4.754;2022-10-16T12:30:33;17.90;99.90
3562;DHT22;1795;52.074;4.754;2022-10-16T12:33:03;17.90;99.90
3562;DHT22;1795;52.074;4.754;2022-10-16T12:35:34;17.90;99.90
3562;DHT22;1795;52.074;4.754;2022-10-16T12:38:16;18.00;99.90
3562;DHT22;1795;52.074;4.754;2022-10-16T12:40:46;18.00;99.90
3562;DHT22;1795;52.074;4.754;2022-10-16T12:43:27;18.00;99.90
3562;DHT22;1795;52.074;4.754;2022-10-16T12:46:00;18.00;99.90
3562;DHT22;1795;52.074;4.754;2022-10-16T12:48:29;18.00;99.90
3562;DHT22;1795;52.074;4.754;2022-10-16T12:51:23;18.00;99.90
3562;DHT22;1795;52.074;4.754;2022-10-16T12:54:00;18.00;99.90
3562;DHT22;1795;52.074;4.754;2022-10-16T12:56:38;18.10;99.90
3562;DHT22;1795;52.074;4.754;2022-10-16T12:59:17;18.10;99.90
3562;DHT22;1795;52.074;4.754;2022-10-16T13:02:15;18.10;99.90
3562;DHT22;1795;52.074;4.754;2022-10-16T13:05:01;18.10;99.90
3562;DHT22;1795;52.074;4.754;2022-10-16T13:07:46;18.20;99.90
3562;DHT22;1795;52.074;4.754;2022-10-16T13:10:25;18.20;99.90
3562;DHT22;1795;52.074;4.754;2022-10-16T13:16:02;18.20;99.90
3562;DHT22;1795;52.074;4.754;2022-10-16T13:18:40;18.20;99.90
3562;DHT22;1795;52.074;4.754;2022-10-16T13:21:19;18.20;99.90
3562;DHT22;1795;52.074;4.754;2022-10-16T13:23:54;18.30;99.90
3562;DHT22;1795;52.074;4.754;2022-10-16T13:26:34;18.30;99.90
3562;DHT22;1795;52.074;4.754;2022-10-16T13:29:06;18.30;99.90
3562;DHT22;1795;52.074;4.754;2022-10-16T13:31:37;18.30;99.90
3562;DHT22;1795;52.074;4.754;2022-10-16T13:34:06;18.30;99.90
3562;DHT22;1795;52.074;4.754;2022-10-16T13:36:44;18.30;99.90
3562;DHT22;1795;52.074;4.754;2022-10-16T13:39:14;18.30;99.90
3562;DHT22;1795;52.074;4.754;2022-10-16T13:41:45;18.30;99.90
3562;DHT22;1795;52.074;4.754;2022-10-16T13:44:15;18.30;99.90
3562;DHT22;1795;52.074;4.754;2022-10-16T13:46:45;18.30;99.90
3562;DHT22;1795;52.074;4.754;2022-10-16T13:49:15;18.30;99.90
3562;DHT22;1795;52.074;4.754;2022-10-16T13:51:54;18.30;99.90
3562;DHT22;1795;52.074;4.754;2022-10-16T13:54:22;18.30;99.90
3562;DHT22;1795;52.074;4.754;2022-10-16T13:56:52;18.30;99.90
3562;DHT22;1795;52.074;4.754;2022-10-16T13:59:36;18.30;99.90
3562;DHT22;1795;52.074;4.754;2022-10-16T14:02:19;18.30;99.90
3562;DHT22;1795;52.074;4.754;2022-10-16T14:04:49;18.30;99.90
3562;DHT22;1795;52.074;4.754;2022-10-16T14:07:22;18.20;99.90
3562;DHT22;1795;52.074;4.754;2022-10-16T14:09:52;18.20;99.90
3562;DHT22;1795;52.074;4.754;2022-10-16T14:12:23;18.20;99.90
3562;DHT22;1795;52.074;4.754;2022-10-16T14:14:55;18.20;99.90
3562;DHT22;1795;52.074;4.754;2022-10-16T14:17:27;18.20;99.90
3562;DHT22;1795;52.074;4.754;2022-10-16T14:19:57;18.20;99.90
3562;DHT22;1795;52.074;4.754;2022-10-16T14:22:33;18.20;99.90
3562;DHT22;1795;52.074;4.754;2022-10-16T14:25:01;18.20;99.90
3562;DHT22;1795;52.074;4.754;2022-10-16T14:27:33;18.20;99.90
3562;DHT22;1795;52.074;4.754;2022-10-16T14:30:17;18.20;99.90
3562;DHT22;1795;52.074;4.754;2022-10-16T14:32:54;18.10;99.90
3562;DHT22;1795;52.074;4.754;2022-10-16T14:35:29;18.10;99.90
3562;DHT22;1795;52.074;4.754;2022-10-16T14:37:58;18.20;99.90
3562;DHT22;1795;52.074;4.754;2022-10-16T14:40:29;18.10;99.90
3562;DHT22;1795;52.074;4.754;2022-10-16T14:42:59;18.10;99.90
3562;DHT22;1795;52.074;4.754;2022-10-16T14:45:29;18.10;99.90
3562;DHT22;1795;52.074;4.754;2022-10-16T14:48:01;18.10;99.90
3562;DHT22;1795;52.074;4.754;2022-10-16T14:50:30;18.00;99.90
3562;DHT22;1795;52.074;4.754;2022-10-16T14:52:58;18.00;99.90
3562;DHT22;1795;52.074;4.754;2022-10-16T14:55:27;18.00;99.90
3562;DHT22;1795;52.074;4.754;2022-10-16T14:57:55;18.00;99.90
3562;DHT22;1795;52.074;4.754;2022-10-16T15:00:28;18.00;99.90
3562;DHT22;1795;52.074;4.754;2022-10-16T15:02:56;18.00;99.90
3562;DHT22;1795;52.074;4.754;2022-10-16T15:05:26;18.00;99.90
3562;DHT22;1795;52.074;4.754;2022-10-16T15:07:55;17.90;99.90
3562;DHT22;1795;52.074;4.754;2022-10-16T15:10:24;17.90;99.90
3562;DHT22;1795;52.074;4.754;2022-10-16T15:12:53;17.80;99.90
3562;DHT22;1795;52.074;4.754;2022-10-16T15:15:38;17.80;99.90
3562;DHT22;1795;52.074;4.754;2022-10-16T15:18:09;17.80;99.90
3562;DHT22;1795;52.074;4.754;2022-10-16T15:20:38;17.70;99.90
3562;DHT22;1795;52.074;4.754;2022-10-16T15:23:12;17.70;99.90
3562;DHT22;1795;52.074;4.754;2022-10-16T15:25:43;17.70;99.90
3562;DHT22;1795;52.074;4.754;2022-10-16T15:28:12;17.70;99.90
3562;DHT22;1795;52.074;4.754;2022-10-16T15:30:42;17.60;99.90
3562;DHT22;1795;52.074;4.754;2022-10-16T15:33:13;17.60;99.90
3562;DHT22;1795;52.074;4.754;2022-10-16T15:35:42;17.50;99.90
3562;DHT22;1795;52.074;4.754;2022-10-16T15:38:11;17.50;99.90
3562;DHT22;1795;52.074;4.754;2022-10-16T15:40:40;17.50;99.90
3562;DHT22;1795;52.074;4.754;2022-10-16T15:43:08;17.50;99.90
3562;DHT22;1795;52.074;4.754;2022-10-16T15:45:37;17.40;99.90
3562;DHT22;1795;52.074;4.754;2022-10-16T15:48:10;17.40;99.90
3562;DHT22;1795;52.074;4.754;2022-10-16T15:50:39;17.30;99.90
3562;DHT22;1795;52.074;4.754;2022-10-16T15:53:07;17.30;99.90
3562;DHT22;1795;52.074;4.754;2022-10-16T15:55:35;17.20;99.90
3562;DHT22;1795;52.074;4.754;2022-10-16T15:58:04;17.20;99.90
3562;DHT22;1795;52.074;4.754;2022-10-16T16:00:32;17.20;99.90
3562;DHT22;1795;52.074;4.754;2022-10-16T16:03:00;17.10;99.90
3562;DHT22;1795;52.074;4.754;2022-10-16T16:05:30;17.00;99.90
3562;DHT22;1795;52.074;4.754;2022-10-16T16:07:59;17.00;99.90
3562;DHT22;1795;52.074;4.754;2022-10-16T16:10:27;17.00;99.90
3562;DHT22;1795;52.074;4.754;2022-10-16T16:12:55;17.00;99.90
3562;DHT22;1795;52.074;4.754;2022-10-16T16:15:24;17.00;99.90
3562;DHT22;1795;52.074;4.754;2022-10-16T16:17:52;16.90;99.90
3562;DHT22;1795;52.074;4.754;2022-10-16T16:20:20;16.90;99.90
3562;DHT22;1795;52.074;4.754;2022-10-16T16:22:49;16.90;99.90
3562;DHT22;1795;52.074;4.754;2022-10-16T16:25:17;16.80;99.90
3562;DHT22;1795;52.074;4.754;2022-10-16T16:27:45;16.80;99.90
3562;DHT22;1795;52.074;4.754;2022-10-16T16:30:13;16.80;99.90
3562;DHT22;1795;52.074;4.754;2022-10-16T16:32:45;16.80;99.90
3562;DHT22;1795;52.074;4.754;2022-10-16T16:35:13;16.80;99.90
3562;DHT22;1795;52.074;4.754;2022-10-16T16:37:41;16.80;99.90